Schedule Details


Flight Number: CTN433
Departure: Tegel (EDDT) at 16:00
Arrival: Kastela (LDSP) at 17:45
Route: GERGA UM725 HDO M725 LANUX DCT RADLY UN74 ROKSA UL868 GISER UL862 PALEZ L862 OKLAX

Weather Information
EDDT 290050Z 24019KT 9999 -RA FEW011 BKN027 04/01 Q0994
LDSP 290030Z AUTO 34005KT 310V030 CAVOK 12/10 Q1008
Schedule Frequency

Route Map